createdAt,value
2018-12-15T00:01:44.112Z,82.70
2018-12-15T00:04:15.515Z,85.17
2018-12-15T00:07:02.670Z,79.67
2018-12-15T00:09:32.067Z,82.97
2018-12-15T00:12:01.401Z,80.57
2018-12-15T00:14:30.917Z,76.97
2018-12-15T00:17:05.648Z,78.50
2018-12-15T00:19:31.917Z,80.07
2018-12-15T00:22:01.351Z,76.13
2018-12-15T00:24:30.701Z,73.97
2018-12-15T00:27:00.086Z,73.57
2018-12-15T00:29:29.531Z,74.07
2018-12-15T00:31:58.931Z,73.17
2018-12-15T00:34:28.284Z,71.27
2018-12-15T00:36:57.609Z,69.60
2018-12-15T00:39:26.949Z,68.87
2018-12-15T00:41:56.351Z,69.67
2018-12-15T00:44:25.701Z,66.50
2018-12-15T00:46:55.084Z,68.57
2018-12-15T00:49:24.404Z,68.43
2018-12-15T00:51:53.752Z,64.97
2018-12-15T00:54:23.086Z,64.37
2018-12-15T00:56:52.443Z,64.43
2018-12-15T00:59:43.507Z,64.77
2018-12-15T01:05:31.668Z,64.83
2018-12-15T01:11:20.364Z,63.83
2018-12-15T01:14:11.634Z,62.93
2018-12-15T01:20:10.354Z,65.37
2018-12-15T01:23:03.633Z,63.47
2018-12-15T01:25:53.369Z,64.70
2018-12-15T01:28:42.514Z,63.53
2018-12-15T01:31:30.235Z,62.47
2018-12-15T01:34:25.764Z,63.43
2018-12-15T01:37:32.328Z,63.93
2018-12-15T01:40:30.573Z,64.07
2018-12-15T01:43:18.464Z,62.30
2018-12-15T01:46:04.806Z,63.90
2018-12-15T01:48:57.017Z,63.40
2018-12-15T01:51:40.279Z,64.97
2018-12-15T01:54:34.004Z,67.77
2018-12-15T01:57:11.618Z,67.30
2018-12-15T01:59:59.363Z,66.53
2018-12-15T02:02:54.030Z,66.40
2018-12-15T02:05:40.540Z,65.33
2018-12-15T02:08:37.429Z,62.43
2018-12-15T02:11:25.374Z,63.87
2018-12-15T02:14:30.829Z,64.00
2018-12-15T02:17:24.242Z,63.37
2018-12-15T02:26:41.157Z,61.00
2018-12-15T02:32:31.369Z,60.90
2018-12-15T02:35:26.404Z,58.23
2018-12-15T02:38:36.334Z,57.53
2018-12-15T02:41:35.034Z,58.00
2018-12-15T02:44:24.830Z,58.80
2018-12-15T02:47:08.447Z,56.43
2018-12-15T02:49:57.642Z,56.77
2018-12-15T02:52:56.794Z,55.83
2018-12-15T02:55:54.533Z,54.20
2018-12-15T02:58:48.069Z,55.23
2018-12-15T03:01:49.718Z,53.73
2018-12-15T03:04:30.584Z,54.37
2018-12-15T03:07:42.290Z,52.73
2018-12-15T03:10:37.978Z,51.97
2018-12-15T03:13:15.977Z,51.50
2018-12-15T03:15:50.059Z,51.13
2018-12-15T03:18:27.192Z,49.13
2018-12-15T03:23:39.961Z,50.17
2018-12-15T03:26:10.935Z,49.43
2018-12-15T03:28:41.004Z,48.47
2018-12-15T03:31:10.728Z,48.23
2018-12-15T03:33:40.143Z,46.97
2018-12-15T03:36:11.219Z,48.13
2018-12-15T03:38:42.077Z,47.70
2018-12-15T03:41:11.903Z,47.07
2018-12-15T03:43:45.662Z,47.17
2018-12-15T03:46:15.938Z,45.00
2018-12-15T03:48:47.345Z,48.00
2018-12-15T03:51:17.005Z,44.90
2018-12-15T03:53:46.347Z,45.37
2018-12-15T03:56:15.704Z,43.00
2018-12-15T03:58:45.045Z,42.37
2018-12-15T04:01:14.363Z,41.07
2018-12-15T04:03:43.819Z,40.87
2018-12-15T04:06:13.150Z,41.30
2018-12-15T04:08:44.127Z,43.73
2018-12-15T04:11:13.455Z,46.13
2018-12-15T04:13:42.830Z,48.03
2018-12-15T04:16:12.157Z,50.50
2018-12-15T04:18:41.804Z,53.33
2018-12-15T04:21:11.136Z,61.43
2018-12-15T04:23:40.469Z,56.93
2018-12-15T04:26:09.781Z,56.57
2018-12-15T04:28:39.111Z,55.57
2018-12-15T04:31:08.464Z,56.20
2018-12-15T04:33:37.899Z,53.07
2018-12-15T04:36:17.024Z,53.77
2018-12-15T04:38:46.361Z,53.47
2018-12-15T04:41:15.722Z,52.17
2018-12-15T04:43:45.209Z,50.93
2018-12-15T04:46:14.563Z,49.53
2018-12-15T04:48:43.907Z,52.23
2018-12-15T04:51:13.244Z,51.20
2018-12-15T04:53:42.644Z,52.60
2018-12-15T04:56:12.663Z,51.27
2018-12-15T04:58:41.994Z,51.20
2018-12-15T05:01:11.341Z,50.87
2018-12-15T05:03:40.727Z,49.93
2018-12-15T05:06:10.101Z,48.83
2018-12-15T05:08:39.451Z,51.07
2018-12-15T05:11:09.241Z,48.53
2018-12-15T05:13:38.573Z,48.17
2018-12-15T05:16:07.930Z,47.90
2018-12-15T05:18:37.339Z,47.70
2018-12-15T05:21:06.648Z,49.63
2018-12-15T05:23:35.981Z,48.27
2018-12-15T05:26:05.489Z,46.57
2018-12-15T05:28:34.804Z,48.33
2018-12-15T05:31:04.119Z,48.30
2018-12-15T05:33:33.712Z,48.50
2018-12-15T05:36:03.042Z,48.97
2018-12-15T05:38:32.447Z,47.63
2018-12-15T05:41:01.801Z,47.47
2018-12-15T05:43:31.144Z,49.47
2018-12-15T05:46:00.481Z,49.07
2018-12-15T05:48:29.833Z,52.77
2018-12-15T05:50:59.144Z,55.30
2018-12-15T05:53:28.484Z,57.03
2018-12-15T05:55:57.812Z,59.30
2018-12-15T05:58:27.160Z,60.27
2018-12-15T06:00:56.484Z,63.63
2018-12-15T06:03:25.851Z,63.80
2018-12-15T06:05:55.188Z,66.90
2018-12-15T06:08:24.575Z,66.87
2018-12-15T06:10:53.924Z,68.27
2018-12-15T06:13:23.290Z,69.13
2018-12-15T06:15:52.641Z,76.20
2018-12-15T06:18:22.075Z,76.27
2018-12-15T06:20:51.432Z,76.57
2018-12-15T06:23:20.763Z,77.37
2018-12-15T06:25:50.091Z,77.37
2018-12-15T06:28:19.443Z,75.57
2018-12-15T06:30:48.756Z,75.00
2018-12-15T06:33:18.105Z,77.27
2018-12-15T06:35:47.429Z,73.40
2018-12-15T06:38:16.760Z,73.30
2018-12-15T06:40:46.102Z,69.73
2018-12-15T06:43:15.754Z,60.47
2018-12-15T06:45:45.664Z,63.80
2018-12-15T06:48:15.097Z,65.30
2018-12-15T06:50:44.423Z,63.03
2018-12-15T06:53:13.752Z,62.93
2018-12-15T06:55:44.020Z,63.43
2018-12-15T06:58:13.344Z,61.30
2018-12-15T07:00:42.680Z,62.63
2018-12-15T07:03:12.015Z,59.83
2018-12-15T07:05:41.372Z,59.77
2018-12-15T07:08:10.699Z,59.07
2018-12-15T07:10:40.045Z,59.80
2018-12-15T07:13:09.386Z,58.00
2018-12-15T07:15:38.747Z,58.40
2018-12-15T07:18:08.067Z,57.47
2018-12-15T07:20:37.419Z,55.87
2018-12-15T07:23:06.748Z,55.27
2018-12-15T07:25:37.492Z,54.23
2018-12-15T07:28:06.820Z,55.57
2018-12-15T07:30:36.211Z,53.57
2018-12-15T07:33:05.541Z,53.67
2018-12-15T07:35:34.907Z,53.13
2018-12-15T07:38:04.247Z,52.37
2018-12-15T07:40:33.698Z,50.60
2018-12-15T07:43:03.043Z,51.53
2018-12-15T07:45:32.368Z,51.27
2018-12-15T07:48:01.732Z,51.90
2018-12-15T07:50:31.043Z,51.33
2018-12-15T07:53:00.389Z,51.60
2018-12-15T07:55:29.722Z,50.03
2018-12-15T07:57:59.076Z,49.97
2018-12-15T08:00:28.404Z,50.07
2018-12-15T08:02:57.756Z,49.03
2018-12-15T08:05:27.100Z,46.77
2018-12-15T08:07:56.516Z,48.57
2018-12-15T08:10:25.831Z,46.17
2018-12-15T08:13:00.552Z,48.23
2018-12-15T08:15:29.928Z,43.97
2018-12-15T08:17:59.276Z,45.23
2018-12-15T08:20:28.616Z,44.13
2018-12-15T08:22:57.987Z,44.10
2018-12-15T08:25:27.429Z,45.30
2018-12-15T08:27:56.819Z,43.47
2018-12-15T08:30:26.302Z,43.67
2018-12-15T08:32:55.677Z,43.50
2018-12-15T08:35:25.025Z,43.00
2018-12-15T08:37:54.645Z,41.27
2018-12-15T08:40:23.992Z,41.60
2018-12-15T08:42:53.324Z,41.60
2018-12-15T08:45:22.795Z,41.00
2018-12-15T08:47:52.176Z,40.83
2018-12-15T08:50:21.499Z,40.10
2018-12-15T08:52:50.811Z,40.10
2018-12-15T08:55:20.224Z,38.23
2018-12-15T08:57:49.568Z,39.57
2018-12-15T09:00:18.900Z,39.40
2018-12-15T09:02:48.240Z,39.30
2018-12-15T09:05:17.567Z,38.10
2018-12-15T09:07:46.896Z,38.40
2018-12-15T09:10:16.243Z,37.77
2018-12-15T09:12:45.559Z,37.07
2018-12-15T09:15:14.892Z,36.70
2018-12-15T09:17:44.228Z,36.60
2018-12-15T09:20:13.559Z,36.73
2018-12-15T09:22:42.900Z,36.97
2018-12-15T09:25:12.385Z,35.33
2018-12-15T09:27:41.892Z,35.93
2018-12-15T09:30:11.269Z,34.27
2018-12-15T09:32:40.645Z,35.17
2018-12-15T09:35:09.996Z,33.13
2018-12-15T09:37:39.330Z,34.10
2018-12-15T09:40:09.477Z,33.30
2018-12-15T09:42:38.803Z,33.33
2018-12-15T09:45:08.135Z,34.90
2018-12-15T09:47:37.500Z,33.47
2018-12-15T09:50:06.841Z,32.97
2018-12-15T09:52:36.180Z,33.57
2018-12-15T09:55:05.715Z,32.93
2018-12-15T09:57:35.101Z,32.53
2018-12-15T10:00:04.687Z,31.90
2018-12-15T10:02:34.063Z,31.60
2018-12-15T10:05:03.440Z,31.13
2018-12-15T10:07:32.786Z,30.73
2018-12-15T10:10:02.121Z,30.20
2018-12-15T10:12:32.706Z,31.27
2018-12-15T10:15:02.028Z,28.73
2018-12-15T10:17:31.384Z,30.07
2018-12-15T10:20:00.707Z,30.20
2018-12-15T10:22:30.080Z,29.60
2018-12-15T10:24:59.456Z,29.77
2018-12-15T10:27:28.824Z,30.00
2018-12-15T10:30:03.232Z,29.23
2018-12-15T10:32:37.668Z,29.23
2018-12-15T10:35:07.484Z,26.20
2018-12-15T10:37:36.855Z,28.70
2018-12-15T10:40:06.372Z,28.30
2018-12-15T10:42:35.734Z,27.37
2018-12-15T10:45:05.211Z,28.23
2018-12-15T10:47:34.528Z,26.20
2018-12-15T10:50:03.909Z,27.40
2018-12-15T10:52:34.276Z,27.03
2018-12-15T10:55:03.735Z,26.27
2018-12-15T10:57:33.065Z,26.73
2018-12-15T11:00:02.433Z,26.33
2018-12-15T11:02:32.888Z,27.40
2018-12-15T11:05:02.456Z,24.57
2018-12-15T11:07:31.861Z,24.63
2018-12-15T11:10:01.244Z,24.43
2018-12-15T11:12:32.372Z,24.70
2018-12-15T11:15:02.946Z,23.90
2018-12-15T11:17:34.385Z,25.07
2018-12-15T11:20:04.883Z,25.00
2018-12-15T11:22:34.745Z,24.67
2018-12-15T11:25:05.645Z,24.20
2018-12-15T11:27:35.771Z,24.13
2018-12-15T11:30:06.109Z,25.20
2018-12-15T11:32:35.444Z,23.67
2018-12-15T11:35:04.887Z,24.07
2018-12-15T11:37:34.223Z,23.23
2018-12-15T11:40:03.588Z,23.43
2018-12-15T11:42:32.916Z,23.17
2018-12-15T11:45:02.453Z,22.13
2018-12-15T11:47:32.900Z,21.07
2018-12-15T11:50:02.267Z,22.43
2018-12-15T11:52:31.614Z,22.73
2018-12-15T11:55:00.932Z,22.23
2018-12-15T11:57:31.040Z,22.87
2018-12-15T12:00:00.861Z,21.53
2018-12-15T12:02:32.022Z,21.03
2018-12-15T12:05:01.603Z,21.07
2018-12-15T12:07:31.983Z,20.70
2018-12-15T12:10:02.324Z,20.43
2018-12-15T12:12:31.929Z,19.73
2018-12-15T12:15:01.344Z,19.90
2018-12-15T12:17:31.744Z,19.40
2018-12-15T12:20:02.927Z,20.37
2018-12-15T12:22:32.348Z,19.90
2018-12-15T12:25:01.709Z,20.63
2018-12-15T12:27:33.076Z,20.97
2018-12-15T12:30:02.844Z,18.57
2018-12-15T12:32:33.648Z,19.70
2018-12-15T12:35:02.975Z,19.60
2018-12-15T12:37:32.313Z,19.70
2018-12-15T12:40:01.624Z,18.73
2018-12-15T12:42:32.112Z,18.33
2018-12-15T12:45:01.435Z,18.50
2018-12-15T12:47:30.774Z,18.17
2018-12-15T12:50:00.240Z,18.77
2018-12-15T12:52:31.060Z,18.73
2018-12-15T12:55:01.024Z,18.77
2018-12-15T12:57:30.457Z,17.97
2018-12-15T12:59:59.988Z,17.50
2018-12-15T13:02:29.373Z,17.83
2018-12-15T13:04:59.754Z,18.27
2018-12-15T13:07:29.120Z,16.23
2018-12-15T13:09:58.451Z,16.67
2018-12-15T13:12:28.672Z,16.60
2018-12-15T13:14:58.109Z,17.43
2018-12-15T13:17:27.448Z,17.30
2018-12-15T13:20:03.461Z,16.57
2018-12-15T13:22:28.128Z,16.40
2018-12-15T13:24:57.478Z,17.13
2018-12-15T13:27:26.956Z,15.50
2018-12-15T13:29:56.319Z,16.50
2018-12-15T13:32:25.655Z,16.60
2018-12-15T13:34:55.014Z,16.47
2018-12-15T13:37:24.359Z,15.57
2018-12-15T13:39:53.735Z,15.40
2018-12-15T13:42:23.114Z,16.27
2018-12-15T13:44:52.536Z,15.57
2018-12-15T13:47:21.888Z,15.47
2018-12-15T13:49:51.322Z,14.90
2018-12-15T13:52:20.679Z,15.70
2018-12-15T13:54:50.082Z,15.63
2018-12-15T13:57:19.727Z,15.13
2018-12-15T13:59:49.071Z,14.20
2018-12-15T14:02:18.688Z,14.57
2018-12-15T14:04:48.080Z,16.97
2018-12-15T14:07:17.452Z,14.57
2018-12-15T14:09:46.873Z,15.53
2018-12-15T14:12:16.244Z,14.53
2018-12-15T14:14:45.592Z,15.77
2018-12-15T14:17:17.001Z,14.17
2018-12-15T14:19:46.596Z,14.23
2018-12-15T14:22:15.940Z,13.80
2018-12-15T14:24:45.299Z,15.80
2018-12-15T14:27:14.662Z,13.43
2018-12-15T14:29:43.984Z,12.53
2018-12-15T14:32:13.416Z,13.20
2018-12-15T14:34:42.747Z,13.57
2018-12-15T14:37:12.157Z,12.80
2018-12-15T14:39:41.630Z,12.90
2018-12-15T14:42:11.068Z,13.50
2018-12-15T14:44:46.760Z,13.53
2018-12-15T14:47:16.165Z,13.17
2018-12-15T14:49:45.547Z,13.00
2018-12-15T14:52:14.975Z,11.80
2018-12-15T14:54:44.324Z,14.20
2018-12-15T14:57:16.783Z,12.83
2018-12-15T14:59:46.173Z,13.23
2018-12-15T15:02:15.544Z,12.87
2018-12-15T15:04:45.152Z,12.27
2018-12-15T15:07:14.576Z,12.43
2018-12-15T15:09:43.927Z,13.07
2018-12-15T15:12:13.346Z,12.63
2018-12-15T15:14:49.064Z,12.33
2018-12-15T15:17:18.473Z,12.20
2018-12-15T15:19:47.901Z,12.13
2018-12-15T15:22:17.294Z,11.77
2018-12-15T15:24:46.759Z,11.63
2018-12-15T15:27:16.111Z,12.83
2018-12-15T15:29:45.425Z,12.07
2018-12-15T15:32:14.771Z,12.10
2018-12-15T15:34:44.139Z,12.00
2018-12-15T15:37:13.488Z,11.40
2018-12-15T15:39:43.445Z,11.27
2018-12-15T15:42:13.913Z,12.20
2018-12-15T15:44:43.554Z,11.90
2018-12-15T15:47:12.972Z,11.57
2018-12-15T15:49:42.370Z,12.50
2018-12-15T15:52:11.740Z,10.90
2018-12-15T15:54:41.095Z,12.53
2018-12-15T15:57:11.678Z,12.97
2018-12-15T15:59:41.376Z,12.87
2018-12-15T16:02:10.749Z,11.30
2018-12-15T16:04:40.152Z,11.67
2018-12-15T16:07:09.624Z,11.63
2018-12-15T16:09:44.765Z,11.73
2018-12-15T16:12:10.403Z,12.10
2018-12-15T16:14:39.783Z,11.43
2018-12-15T16:17:09.152Z,12.30
2018-12-15T16:19:38.498Z,12.03
2018-12-15T16:22:08.865Z,11.97
2018-12-15T16:24:38.242Z,11.67
2018-12-15T16:27:07.595Z,14.03
2018-12-15T16:29:36.932Z,12.13
2018-12-15T16:32:07.603Z,11.53
2018-12-15T16:34:36.951Z,11.17
2018-12-15T16:37:10.074Z,11.67
2018-12-15T16:39:39.395Z,10.80
2018-12-15T16:42:08.751Z,11.03
2018-12-15T16:44:38.096Z,10.53
2018-12-15T16:47:14.097Z,10.40
2018-12-15T16:49:43.411Z,10.73
2018-12-15T16:52:12.760Z,10.87
2018-12-15T16:54:42.124Z,10.83
2018-12-15T16:57:11.485Z,11.13
2018-12-15T16:59:40.852Z,10.87
2018-12-15T17:02:10.253Z,11.03
2018-12-15T17:04:39.703Z,11.07
2018-12-15T17:07:09.061Z,11.90
2018-12-15T17:09:38.388Z,10.07
2018-12-15T17:12:07.744Z,11.30
2018-12-15T17:14:37.091Z,10.50
2018-12-15T17:17:06.476Z,11.10
2018-12-15T17:19:35.804Z,10.53
2018-12-15T17:22:05.164Z,10.00
2018-12-15T17:24:35.528Z,10.53
2018-12-15T17:27:04.903Z,10.30
2018-12-15T17:29:34.253Z,10.37
2018-12-15T17:32:03.718Z,10.57
2018-12-15T17:34:33.067Z,10.43
2018-12-15T17:37:02.449Z,10.13
2018-12-15T17:39:31.948Z,10.27
2018-12-15T17:42:01.320Z,10.87
2018-12-15T17:44:30.677Z,10.80
2018-12-15T17:47:00.013Z,10.27
2018-12-15T17:49:29.376Z,9.93
2018-12-15T17:51:58.736Z,10.00
2018-12-15T17:54:28.101Z,9.60
2018-12-15T17:56:57.516Z,9.47
2018-12-15T17:59:27.504Z,9.73
2018-12-15T18:01:57.742Z,9.77
2018-12-15T18:04:27.131Z,9.83
2018-12-15T18:06:56.556Z,10.10
2018-12-15T18:09:25.932Z,10.37
2018-12-15T18:11:55.293Z,10.10
2018-12-15T18:14:24.922Z,9.60
2018-12-15T18:16:54.257Z,9.50
2018-12-15T18:19:23.872Z,9.60
2018-12-15T18:21:53.253Z,10.53
2018-12-15T18:24:22.624Z,10.67
2018-12-15T18:26:52.279Z,9.70
2018-12-15T18:29:22.415Z,11.00
2018-12-15T18:31:51.824Z,11.07
2018-12-15T18:34:21.292Z,13.10
2018-12-15T18:36:50.672Z,22.53
2018-12-15T18:39:20.047Z,22.27
2018-12-15T18:41:49.396Z,25.33
2018-12-15T18:44:18.779Z,24.93
2018-12-15T18:46:48.267Z,25.93
2018-12-15T18:49:17.631Z,25.57
2018-12-15T18:51:48.048Z,24.97
2018-12-15T18:54:17.480Z,26.30
2018-12-15T18:56:47.589Z,26.33
2018-12-15T18:59:17.215Z,27.93
2018-12-15T19:01:47.645Z,29.17
2018-12-15T19:04:17.072Z,29.57
2018-12-15T19:06:46.504Z,30.97
2018-12-15T19:09:17.071Z,34.30
2018-12-15T19:11:46.448Z,35.73
2018-12-15T19:14:15.860Z,36.97
2018-12-15T19:16:45.252Z,37.83
2018-12-15T19:19:15.821Z,40.80
2018-12-15T19:21:45.185Z,44.43
2018-12-15T19:24:14.657Z,47.30
2018-12-15T19:26:44.046Z,45.77
2018-12-15T19:29:13.402Z,46.47
2018-12-15T19:31:42.840Z,46.67
2018-12-15T19:34:17.447Z,48.87
2018-12-15T19:36:44.818Z,49.50
2018-12-15T19:39:14.186Z,49.40
2018-12-15T19:41:43.609Z,48.83
2018-12-15T19:44:13.049Z,46.10
2018-12-15T19:46:42.415Z,49.10
2018-12-15T19:49:12.304Z,50.17
2018-12-15T19:51:41.844Z,47.80
2018-12-15T19:54:11.183Z,49.87
2018-12-15T19:56:40.552Z,48.33
2018-12-15T19:59:14.301Z,47.87
2018-12-15T20:01:44.444Z,46.97
2018-12-15T20:04:13.852Z,47.77
2018-12-15T20:06:43.177Z,46.07
2018-12-15T20:09:12.559Z,49.87
2018-12-15T20:11:41.930Z,49.73
2018-12-15T20:14:11.368Z,49.03
2018-12-15T20:16:40.752Z,51.03
2018-12-15T20:19:10.136Z,50.57
2018-12-15T20:21:39.528Z,54.27
2018-12-15T20:24:09.831Z,54.90
2018-12-15T20:26:39.160Z,53.40
2018-12-15T20:29:08.503Z,56.87
2018-12-15T20:31:37.844Z,57.70
2018-12-15T20:34:07.253Z,57.03
2018-12-15T20:36:37.200Z,58.73
2018-12-15T20:39:07.948Z,58.33
2018-12-15T20:41:37.320Z,58.43
2018-12-15T20:44:06.665Z,57.50
2018-12-15T20:46:36.018Z,58.57
2018-12-15T20:49:05.364Z,58.27
2018-12-15T20:51:34.695Z,61.07
2018-12-15T20:54:04.065Z,60.37
2018-12-15T20:56:33.397Z,61.60
2018-12-15T20:59:02.732Z,62.37
2018-12-15T21:01:32.122Z,64.23
2018-12-15T21:04:01.456Z,63.57
2018-12-15T21:06:31.844Z,65.47
2018-12-15T21:09:01.179Z,66.13
2018-12-15T21:11:31.673Z,67.47
2018-12-15T21:14:01.004Z,70.30
2018-12-15T21:16:30.367Z,72.40
2018-12-15T21:18:59.704Z,72.67
2018-12-15T21:21:29.149Z,68.53
2018-12-15T21:23:58.508Z,70.97
2018-12-15T21:26:27.876Z,69.10
2018-12-15T21:28:57.204Z,72.57
2018-12-15T21:31:26.569Z,68.63
2018-12-15T21:33:55.916Z,73.23
2018-12-15T21:36:25.268Z,71.27
2018-12-15T21:38:54.602Z,72.10
2018-12-15T21:41:24.127Z,72.80
2018-12-15T21:43:53.473Z,72.73
2018-12-15T21:46:22.843Z,71.13
2018-12-15T21:48:52.176Z,70.13
2018-12-15T21:51:21.548Z,73.33
2018-12-15T21:53:50.889Z,72.23
2018-12-15T21:56:20.292Z,71.70
2018-12-15T21:58:49.623Z,69.60
2018-12-15T22:01:19.009Z,69.90
2018-12-15T22:03:48.344Z,70.63
2018-12-15T22:06:17.968Z,70.10
2018-12-15T22:08:47.297Z,70.00
2018-12-15T22:11:16.640Z,66.07
2018-12-15T22:13:45.991Z,66.93
2018-12-15T22:16:15.336Z,68.47
2018-12-15T22:18:44.673Z,66.37
2018-12-15T22:21:14.016Z,65.47
2018-12-15T22:23:43.395Z,65.20
2018-12-15T22:26:12.729Z,65.47
2018-12-15T22:28:42.072Z,64.23
2018-12-15T22:31:11.395Z,63.73
2018-12-15T22:33:40.763Z,63.47
2018-12-15T22:36:10.104Z,63.30
2018-12-15T22:38:39.610Z,63.20
2018-12-15T22:41:08.983Z,62.07
2018-12-15T22:43:38.371Z,62.13
2018-12-15T22:46:07.692Z,60.63
2018-12-15T22:48:37.054Z,59.17
2018-12-15T22:51:06.407Z,59.57
2018-12-15T22:53:35.767Z,57.90
2018-12-15T22:56:05.111Z,57.63
2018-12-15T22:58:34.468Z,56.53
2018-12-15T23:01:12.097Z,55.00
2018-12-15T23:03:43.501Z,55.67
2018-12-15T23:06:12.858Z,56.83
2018-12-15T23:08:42.216Z,53.97
2018-12-15T23:11:11.547Z,53.73
2018-12-15T23:13:40.896Z,54.50
2018-12-15T23:16:10.235Z,52.60
2018-12-15T23:18:40.606Z,53.80
2018-12-15T23:21:09.944Z,52.17
2018-12-15T23:23:39.280Z,49.87
2018-12-15T23:26:08.633Z,50.03
2018-12-15T23:28:37.979Z,49.97
2018-12-15T23:31:07.328Z,49.87
2018-12-15T23:33:36.832Z,47.53
2018-12-15T23:36:06.172Z,47.97
2018-12-15T23:38:35.528Z,48.47
2018-12-15T23:41:04.851Z,47.03
2018-12-15T23:43:34.193Z,46.43
2018-12-15T23:46:03.552Z,44.90
2018-12-15T23:48:32.889Z,46.57
2018-12-15T23:51:02.243Z,45.33
2018-12-15T23:53:31.587Z,45.13
2018-12-15T23:56:00.944Z,43.40
2018-12-15T23:58:30.299Z,43.27
